Time;durP1;ratioP1;P1;durP2;ratioP2;P2;SDS_P1;SDS_P2;PMS_P1;PMS_P2;Temp;Humidity;BMP_temperature;BMP_pressure;BME280_temperature;BME280_humidity;BME280_pressure;Samples;Min_cycle;Max_cycle;Signal;HPM_P1;HPM_P2
2022/05/19 00:02:17;;;;;;;;;;;15.90;99.90;;;;;;5079620;28;20186;-71
2022/05/19 00:04:42;;;;;;;;;;;16.00;99.90;;;;;;5085948;28;20006;-71
2022/05/19 00:07:08;;;;;;;;;;;16.00;99.90;;;;;;5080209;28;20402;-71
2022/05/19 00:09:34;;;;;;;;;;;15.90;99.90;;;;;;5086427;28;19950;-71
2022/05/19 00:12:00;;;;;;;;;;;15.90;99.90;;;;;;5079716;28;20295;-71
2022/05/19 00:14:26;;;;;;;;;;;16.00;99.90;;;;;;5078099;28;19947;-71
2022/05/19 00:16:56;;;;;;;;;;;16.00;99.90;;;;;;5081074;28;20399;-71
2022/05/19 00:19:22;;;;;;;;;;;15.90;99.90;;;;;;5068707;28;19959;-71
2022/05/19 00:21:47;;;;;;;;;;;15.90;99.90;;;;;;5104864;27;20398;-71
2022/05/19 00:24:13;;;;;;;;;;;15.90;99.90;;;;;;5072457;28;20640;-71
2022/05/19 00:26:38;;;;;;;;;;;15.90;99.90;;;;;;5080667;28;20374;-71
2022/05/19 00:29:04;;;;;;;;;;;16.00;99.90;;;;;;5070659;28;19921;-72
2022/05/19 00:31:31;;;;;;;;;;;15.90;99.90;;;;;;5072199;28;20430;-71
2022/05/19 00:33:57;;;;;;;;;;;15.90;99.90;;;;;;5075981;28;20011;-71
2022/05/19 00:36:23;;;;;;;;;;;15.90;99.90;;;;;;5078193;28;20133;-70
2022/05/19 00:38:48;;;;;;;;;;;15.90;99.90;;;;;;5075342;28;19924;-70
2022/05/19 00:41:14;;;;;;;;;;;15.80;99.90;;;;;;5086770;28;19920;-71
2022/05/19 00:43:46;;;;;;;;;;;15.80;99.90;;;;;;5087815;28;19927;-71
2022/05/19 00:46:18;;;;;;;;;;;15.70;99.90;;;;;;5085129;28;19928;-71
2022/05/19 00:48:52;;;;;;;;;;;15.70;99.90;;;;;;5078734;28;19947;-71
2022/05/19 00:51:18;;;;;;;;;;;15.70;99.90;;;;;;5086350;28;19919;-71
2022/05/19 00:53:54;;;;;;;;;;;15.70;99.90;;;;;;5111355;27;19924;-71
2022/05/19 00:56:23;;;;;;;;;;;15.60;99.90;;;;;;5080507;28;19967;-72
2022/05/19 00:58:51;;;;;;;;;;;15.60;99.90;;;;;;5083844;28;19931;-71
2022/05/19 01:01:17;;;;;;;;;;;15.60;99.90;;;;;;5085638;28;19920;-71
2022/05/19 01:03:46;;;;;;;;;;;15.60;99.90;;;;;;5088705;28;20306;-71
2022/05/19 01:06:15;;;;;;;;;;;15.60;99.90;;;;;;5079129;28;20374;-71
2022/05/19 01:08:44;;;;;;;;;;;15.50;99.90;;;;;;5078594;28;19958;-71
2022/05/19 01:11:10;;;;;;;;;;;15.50;99.90;;;;;;5081756;28;19995;-72
2022/05/19 01:13:35;;;;;;;;;;;15.40;99.90;;;;;;5086084;28;20003;-71
2022/05/19 01:16:03;;;;;;;;;;;15.40;99.90;;;;;;5083028;28;19928;-71
2022/05/19 01:18:29;;;;;;;;;;;15.40;99.90;;;;;;5092338;28;20379;-71
2022/05/19 01:20:55;;;;;;;;;;;15.40;99.90;;;;;;5093300;28;19987;-71
2022/05/19 01:23:44;;;;;;;;;;;15.40;99.90;;;;;;5090008;28;20386;-71
2022/05/19 01:26:18;;;;;;;;;;;15.40;99.90;;;;;;5078930;28;19924;-71
2022/05/19 01:28:44;;;;;;;;;;;15.40;99.90;;;;;;5089538;28;19927;-71
2022/05/19 01:31:28;;;;;;;;;;;15.40;99.90;;;;;;5086861;28;19973;-70
2022/05/19 01:33:54;;;;;;;;;;;15.40;99.90;;;;;;5095529;28;19920;-71
2022/05/19 01:36:19;;;;;;;;;;;15.40;99.90;;;;;;5087802;28;19924;-71
2022/05/19 01:38:45;;;;;;;;;;;15.40;99.90;;;;;;5093103;28;19924;-71
2022/05/19 01:41:17;;;;;;;;;;;15.40;99.90;;;;;;5082110;28;19928;-71
2022/05/19 01:43:47;;;;;;;;;;;15.40;99.90;;;;;;5115727;27;20026;-71
2022/05/19 01:46:13;;;;;;;;;;;15.40;99.90;;;;;;5090879;28;19977;-71
2022/05/19 01:48:43;;;;;;;;;;;15.40;99.90;;;;;;5089932;28;19923;-70
2022/05/19 01:51:27;;;;;;;;;;;15.30;99.90;;;;;;5076505;28;19932;-70
2022/05/19 01:54:02;;;;;;;;;;;15.30;99.90;;;;;;5087496;28;19924;-71
2022/05/19 01:56:46;;;;;;;;;;;15.30;99.90;;;;;;5084513;28;19974;-71
2022/05/19 01:59:12;;;;;;;;;;;15.30;99.90;;;;;;5118343;27;19924;-71
2022/05/19 02:01:39;;;;;;;;;;;15.40;99.90;;;;;;5082441;28;19931;-71
2022/05/19 02:04:08;;;;;;;;;;;15.40;99.90;;;;;;5089841;28;20367;-71
2022/05/19 02:06:37;;;;;;;;;;;15.30;99.90;;;;;;5085144;28;20280;-71
2022/05/19 02:09:06;;;;;;;;;;;15.30;99.90;;;;;;5088869;28;20240;-71
2022/05/19 02:11:36;;;;;;;;;;;15.30;99.90;;;;;;5083311;28;19920;-71
2022/05/19 02:14:05;;;;;;;;;;;15.30;99.90;;;;;;5123627;27;19931;-72
2022/05/19 02:16:30;;;;;;;;;;;15.30;99.90;;;;;;5119822;27;19924;-71
2022/05/19 02:18:56;;;;;;;;;;;15.20;99.90;;;;;;5090236;28;19924;-71
2022/05/19 02:21:22;;;;;;;;;;;15.30;99.90;;;;;;5082195;28;19928;-71
2022/05/19 02:23:47;;;;;;;;;;;15.20;99.90;;;;;;5089214;28;20291;-71
2022/05/19 02:26:13;;;;;;;;;;;15.30;99.90;;;;;;5082780;28;19931;-71
2022/05/19 02:28:41;;;;;;;;;;;15.30;99.90;;;;;;5089709;28;19920;-71
2022/05/19 02:31:07;;;;;;;;;;;15.30;99.90;;;;;;5119154;27;20483;-71
2022/05/19 02:33:32;;;;;;;;;;;15.20;99.90;;;;;;5091428;28;19920;-71
2022/05/19 02:35:57;;;;;;;;;;;15.20;99.90;;;;;;5085100;28;19928;-71
2022/05/19 02:38:23;;;;;;;;;;;15.20;99.90;;;;;;5089760;28;19962;-71
2022/05/19 02:40:49;;;;;;;;;;;15.20;99.90;;;;;;5086610;28;19921;-71
2022/05/19 02:43:15;;;;;;;;;;;15.20;99.90;;;;;;5082899;28;19969;-71
2022/05/19 02:45:41;;;;;;;;;;;15.20;99.90;;;;;;5097830;28;19927;-71
2022/05/19 02:48:07;;;;;;;;;;;15.20;99.90;;;;;;5083570;28;20290;-71
2022/05/19 02:50:32;;;;;;;;;;;15.20;99.90;;;;;;5087226;28;19931;-71
2022/05/19 02:52:58;;;;;;;;;;;15.20;99.90;;;;;;5080171;28;19943;-71
2022/05/19 02:55:24;;;;;;;;;;;15.20;99.90;;;;;;5084661;28;19933;-71
2022/05/19 02:57:50;;;;;;;;;;;15.20;99.90;;;;;;5089931;28;19951;-71
2022/05/19 03:00:18;;;;;;;;;;;15.20;99.90;;;;;;5089557;28;19974;-71
2022/05/19 03:02:44;;;;;;;;;;;15.20;99.90;;;;;;5078490;28;19928;-71
2022/05/19 03:05:10;;;;;;;;;;;15.20;99.90;;;;;;5080576;28;20375;-71
2022/05/19 03:07:36;;;;;;;;;;;15.20;99.90;;;;;;5085108;28;19920;-71
2022/05/19 03:10:02;;;;;;;;;;;15.20;99.90;;;;;;5084149;28;19993;-71
2022/05/19 03:12:28;;;;;;;;;;;15.20;99.90;;;;;;5077181;28;20377;-72
2022/05/19 03:14:54;;;;;;;;;;;15.30;99.90;;;;;;5116039;27;19920;-71
2022/05/19 03:17:20;;;;;;;;;;;15.30;99.90;;;;;;5079496;28;20091;-71
2022/05/19 03:19:45;;;;;;;;;;;15.30;99.90;;;;;;5112313;27;20338;-71
2022/05/19 03:22:11;;;;;;;;;;;15.20;99.90;;;;;;5083412;28;19927;-72
2022/05/19 03:24:36;;;;;;;;;;;15.20;99.90;;;;;;5092445;28;19927;-71
2022/05/19 03:27:02;;;;;;;;;;;15.20;99.90;;;;;;5087311;28;19928;-71
2022/05/19 03:29:28;;;;;;;;;;;15.30;99.90;;;;;;5087990;28;20015;-72
2022/05/19 03:31:53;;;;;;;;;;;15.30;99.90;;;;;;5083149;28;19948;-72
2022/05/19 03:34:19;;;;;;;;;;;15.20;99.90;;;;;;5085496;28;19927;-72
2022/05/19 03:36:45;;;;;;;;;;;15.20;99.90;;;;;;5078446;28;19920;-72
2022/05/19 03:39:10;;;;;;;;;;;15.20;99.90;;;;;;5088872;28;20276;-72
2022/05/19 03:41:36;;;;;;;;;;;15.20;99.90;;;;;;5118651;27;19931;-71
2022/05/19 03:44:02;;;;;;;;;;;15.20;99.90;;;;;;5087358;28;19924;-73
2022/05/19 03:46:27;;;;;;;;;;;15.20;99.90;;;;;;5089017;28;19971;-72
2022/05/19 03:48:53;;;;;;;;;;;15.20;99.90;;;;;;5080702;28;20213;-72
2022/05/19 03:51:23;;;;;;;;;;;15.20;99.90;;;;;;5088709;28;19965;-72
2022/05/19 03:53:49;;;;;;;;;;;15.20;99.90;;;;;;5086221;28;19931;-72
2022/05/19 03:56:15;;;;;;;;;;;15.20;99.90;;;;;;5092058;28;20325;-72
2022/05/19 03:58:41;;;;;;;;;;;15.20;99.90;;;;;;5079588;28;19925;-72
2022/05/19 04:01:06;;;;;;;;;;;15.20;99.90;;;;;;5090487;28;20337;-72
2022/05/19 04:03:31;;;;;;;;;;;15.10;99.90;;;;;;5087185;28;20425;-72
2022/05/19 04:05:57;;;;;;;;;;;15.20;99.90;;;;;;5084436;28;20031;-72
2022/05/19 04:08:22;;;;;;;;;;;15.10;99.90;;;;;;5083442;28;20395;-71
2022/05/19 04:10:48;;;;;;;;;;;15.20;99.90;;;;;;5077960;28;20106;-71
2022/05/19 04:13:13;;;;;;;;;;;15.20;99.90;;;;;;5083026;28;20290;-72
2022/05/19 04:15:39;;;;;;;;;;;15.30;99.90;;;;;;5091230;28;19924;-72
2022/05/19 04:18:05;;;;;;;;;;;15.30;99.90;;;;;;5077860;28;19924;-71
2022/05/19 04:20:30;;;;;;;;;;;15.40;99.90;;;;;;5072377;28;19931;-71
2022/05/19 04:22:57;;;;;;;;;;;15.40;99.90;;;;;;5087346;28;19973;-72
2022/05/19 04:25:22;;;;;;;;;;;15.50;99.90;;;;;;5090738;28;19924;-72
2022/05/19 04:27:48;;;;;;;;;;;15.50;99.90;;;;;;5088800;28;19920;-72
2022/05/19 04:30:13;;;;;;;;;;;15.40;99.90;;;;;;5088425;28;19925;-71
2022/05/19 04:32:39;;;;;;;;;;;15.50;99.90;;;;;;5087745;28;20274;-71
2022/05/19 04:35:04;;;;;;;;;;;15.40;99.90;;;;;;5076767;28;20267;-72
2022/05/19 04:37:30;;;;;;;;;;;15.50;99.90;;;;;;5073908;28;20314;-72
2022/05/19 04:39:55;;;;;;;;;;;15.40;99.90;;;;;;5082109;28;19920;-72
2022/05/19 04:42:21;;;;;;;;;;;15.50;99.90;;;;;;5080929;28;19921;-72
2022/05/19 04:44:46;;;;;;;;;;;15.50;99.90;;;;;;5077243;28;19928;-72
2022/05/19 04:47:12;;;;;;;;;;;15.60;99.90;;;;;;5088116;28;20374;-72
2022/05/19 04:49:37;;;;;;;;;;;15.60;99.90;;;;;;5084231;28;20362;-72
2022/05/19 04:52:03;;;;;;;;;;;15.70;99.90;;;;;;5084437;28;20378;-71
2022/05/19 04:54:28;;;;;;;;;;;15.80;99.90;;;;;;5113296;28;20434;-72
2022/05/19 04:56:53;;;;;;;;;;;15.80;99.90;;;;;;5072408;28;19921;-72
2022/05/19 04:59:19;;;;;;;;;;;15.90;99.90;;;;;;5076391;28;20413;-72
2022/05/19 05:01:47;;;;;;;;;;;16.00;99.90;;;;;;5108996;28;20368;-72
2022/05/19 05:04:13;;;;;;;;;;;16.10;99.90;;;;;;5074116;28;20333;-72
2022/05/19 05:06:39;;;;;;;;;;;16.20;99.90;;;;;;5089956;28;19966;-71
2022/05/19 05:09:05;;;;;;;;;;;16.30;99.90;;;;;;5076420;28;19927;-71
2022/05/19 05:11:31;;;;;;;;;;;16.50;99.90;;;;;;5074199;28;19938;-71
2022/05/19 05:13:56;;;;;;;;;;;16.60;99.90;;;;;;5074278;28;20189;-71
2022/05/19 05:16:22;;;;;;;;;;;16.70;99.90;;;;;;5105779;28;20432;-72
2022/05/19 05:18:47;;;;;;;;;;;16.90;99.90;;;;;;5077485;28;19932;-72
2022/05/19 05:21:13;;;;;;;;;;;17.00;99.90;;;;;;5078552;28;20006;-72
2022/05/19 05:23:42;;;;;;;;;;;17.10;99.90;;;;;;5107626;28;19931;-69
2022/05/19 05:26:08;;;;;;;;;;;17.30;99.90;;;;;;5074358;28;19939;-71
2022/05/19 05:28:34;;;;;;;;;;;17.40;99.90;;;;;;5074437;28;19951;-71
2022/05/19 05:31:00;;;;;;;;;;;17.50;99.90;;;;;;5068552;28;19924;-67
2022/05/19 05:33:25;;;;;;;;;;;17.70;99.90;;;;;;5082549;28;19928;-71
2022/05/19 05:35:51;;;;;;;;;;;17.80;99.90;;;;;;5093256;28;19931;-71
2022/05/19 05:38:17;;;;;;;;;;;18.00;99.90;;;;;;5075721;28;19928;-67
2022/05/19 05:40:43;;;;;;;;;;;18.00;99.90;;;;;;5083212;28;20139;-69
2022/05/19 05:43:10;;;;;;;;;;;18.20;99.90;;;;;;5075953;28;19939;-67
2022/05/19 05:45:36;;;;;;;;;;;18.20;99.90;;;;;;5109211;27;19927;-70
2022/05/19 05:48:01;;;;;;;;;;;18.30;99.90;;;;;;5074918;28;19942;-70
2022/05/19 05:50:27;;;;;;;;;;;18.30;99.90;;;;;;5081869;28;19920;-70
2022/05/19 05:52:52;;;;;;;;;;;18.50;99.90;;;;;;5079217;28;19999;-70
2022/05/19 05:55:18;;;;;;;;;;;18.60;99.90;;;;;;5078028;28;19924;-66
2022/05/19 05:57:43;;;;;;;;;;;18.70;99.90;;;;;;5078509;28;19928;-69
2022/05/19 06:00:10;;;;;;;;;;;18.80;99.90;;;;;;5081255;28;20002;-68
2022/05/19 06:02:36;;;;;;;;;;;18.90;99.90;;;;;;5083580;28;19920;-70
2022/05/19 06:05:01;;;;;;;;;;;19.00;99.90;;;;;;5077118;28;19947;-70
2022/05/19 06:07:30;;;;;;;;;;;18.90;99.90;;;;;;5077903;28;20531;-70
2022/05/19 06:09:56;;;;;;;;;;;19.00;99.90;;;;;;5074908;28;20380;-71
2022/05/19 06:12:22;;;;;;;;;;;18.90;99.90;;;;;;5076343;28;19920;-72
2022/05/19 06:14:48;;;;;;;;;;;19.00;99.90;;;;;;5078292;28;19920;-68
2022/05/19 06:17:14;;;;;;;;;;;19.00;99.90;;;;;;5074797;28;19931;-70
2022/05/19 06:19:39;;;;;;;;;;;19.10;99.90;;;;;;5107712;27;19935;-70
2022/05/19 06:22:05;;;;;;;;;;;19.20;99.90;;;;;;5084320;28;19924;-70
2022/05/19 06:24:32;;;;;;;;;;;19.20;99.90;;;;;;5105370;27;20418;-69
2022/05/19 06:26:57;;;;;;;;;;;19.20;99.90;;;;;;5082862;28;20456;-70
2022/05/19 06:29:23;;;;;;;;;;;19.30;99.90;;;;;;5076356;28;19923;-69
2022/05/19 06:31:48;;;;;;;;;;;19.30;99.90;;;;;;5082254;28;19928;-69
2022/05/19 06:34:14;;;;;;;;;;;19.30;99.90;;;;;;5078667;28;19920;-69
2022/05/19 06:36:39;;;;;;;;;;;19.20;99.90;;;;;;5076412;28;19930;-69
2022/05/19 06:39:05;;;;;;;;;;;19.20;99.90;;;;;;5075083;28;20374;-68
2022/05/19 06:44:17;;;;;;;;;;;19.10;99.90;;;;;;5083014;28;20008;-69
2022/05/19 06:46:43;;;;;;;;;;;19.10;99.90;;;;;;5078180;28;19920;-69
2022/05/19 06:49:09;;;;;;;;;;;19.10;99.90;;;;;;5106771;27;20005;-68
2022/05/19 06:51:35;;;;;;;;;;;19.00;99.90;;;;;;5073415;28;19920;-67
2022/05/19 06:54:00;;;;;;;;;;;18.90;99.90;;;;;;5085169;28;20400;-68
2022/05/19 06:56:26;;;;;;;;;;;18.90;99.90;;;;;;5117112;27;19973;-69
2022/05/19 06:58:52;;;;;;;;;;;18.80;99.90;;;;;;5078812;28;19928;-67
2022/05/19 07:01:17;;;;;;;;;;;18.80;99.90;;;;;;5079798;28;19998;-67
2022/05/19 07:03:43;;;;;;;;;;;18.70;99.90;;;;;;5074759;28;19924;-68
2022/05/19 07:06:08;;;;;;;;;;;18.70;99.90;;;;;;5071455;28;19920;-68
2022/05/19 07:08:34;;;;;;;;;;;18.70;99.90;;;;;;5082450;28;20007;-67
2022/05/19 07:11:00;;;;;;;;;;;18.60;99.90;;;;;;5081072;28;19920;-67
2022/05/19 07:13:26;;;;;;;;;;;18.60;99.90;;;;;;5073672;28;20298;-66
2022/05/19 07:15:51;;;;;;;;;;;18.70;99.90;;;;;;5072133;28;19924;-66
2022/05/19 07:18:17;;;;;;;;;;;18.60;99.90;;;;;;5076908;28;20333;-70
2022/05/19 07:20:47;;;;;;;;;;;18.60;99.90;;;;;;5077848;28;20377;-65
2022/05/19 07:23:19;;;;;;;;;;;18.50;99.90;;;;;;5081358;28;19921;-66
2022/05/19 07:25:45;;;;;;;;;;;18.50;99.90;;;;;;5077860;28;19966;-66
2022/05/19 07:28:12;;;;;;;;;;;18.40;99.90;;;;;;5077143;28;19927;-67
2022/05/19 07:30:39;;;;;;;;;;;18.40;99.90;;;;;;5085072;28;19919;-66
2022/05/19 07:33:05;;;;;;;;;;;18.50;99.90;;;;;;5077361;28;19924;-67
2022/05/19 07:35:30;;;;;;;;;;;18.60;99.90;;;;;;5079293;28;19927;-67
2022/05/19 07:37:56;;;;;;;;;;;18.60;99.90;;;;;;5078014;28;19950;-65
2022/05/19 07:40:21;;;;;;;;;;;18.70;99.90;;;;;;5089945;28;20438;-66
2022/05/19 07:42:50;;;;;;;;;;;18.70;99.90;;;;;;5085854;28;20018;-68
2022/05/19 07:45:15;;;;;;;;;;;18.80;99.90;;;;;;5081496;28;19921;-66
2022/05/19 07:47:41;;;;;;;;;;;18.90;99.90;;;;;;5078312;28;19927;-67
2022/05/19 07:50:11;;;;;;;;;;;18.90;99.90;;;;;;5087356;28;19994;-66
2022/05/19 07:52:37;;;;;;;;;;;19.00;99.90;;;;;;5080449;28;20062;-66
2022/05/19 07:55:03;;;;;;;;;;;19.00;99.90;;;;;;5091675;28;20342;-67
2022/05/19 07:57:29;;;;;;;;;;;18.90;99.90;;;;;;5091955;28;19924;-68
2022/05/19 07:59:54;;;;;;;;;;;19.00;99.90;;;;;;5081970;28;19920;-66
2022/05/19 08:02:20;;;;;;;;;;;19.00;99.90;;;;;;5075194;28;20328;-67
2022/05/19 08:04:46;;;;;;;;;;;18.90;99.90;;;;;;5094472;28;19920;-67
2022/05/19 08:07:11;;;;;;;;;;;19.10;99.90;;;;;;5091246;28;19963;-67
2022/05/19 08:17:52;;;;;;;;;;;19.40;99.90;;;;;;5078798;28;19931;-66
2022/05/19 08:20:18;;;;;;;;;;;19.40;99.90;;;;;;5075291;28;20367;-66
2022/05/19 08:22:43;;;;;;;;;;;19.50;99.90;;;;;;5077252;28;19924;-69
2022/05/19 08:25:09;;;;;;;;;;;19.60;99.90;;;;;;5082038;28;19978;-67
2022/05/19 08:27:34;;;;;;;;;;;19.70;99.90;;;;;;5083839;28;20053;-66
2022/05/19 08:30:00;;;;;;;;;;;19.80;99.90;;;;;;5092368;28;20287;-65
2022/05/19 08:32:26;;;;;;;;;;;19.90;99.90;;;;;;5091906;28;19920;-66
2022/05/19 08:34:51;;;;;;;;;;;20.00;99.90;;;;;;5074937;28;20405;-67
2022/05/19 08:37:17;;;;;;;;;;;20.10;99.90;;;;;;5075159;28;20433;-67
2022/05/19 08:39:42;;;;;;;;;;;20.20;99.90;;;;;;5078039;28;19958;-68
2022/05/19 08:42:08;;;;;;;;;;;20.30;99.90;;;;;;5082178;28;19966;-68
2022/05/19 08:44:41;;;;;;;;;;;20.30;99.90;;;;;;5079479;28;19990;-68
2022/05/19 08:47:07;;;;;;;;;;;20.40;99.90;;;;;;5088094;28;20305;-69
2022/05/19 08:49:39;;;;;;;;;;;20.50;99.90;;;;;;5081030;28;19981;-70
2022/05/19 08:52:06;;;;;;;;;;;20.60;99.90;;;;;;5082859;28;19923;-69
2022/05/19 08:54:33;;;;;;;;;;;20.60;99.90;;;;;;5091436;28;19964;-71
2022/05/19 08:57:01;;;;;;;;;;;20.60;99.90;;;;;;5080820;28;20337;-70
2022/05/19 08:59:39;;;;;;;;;;;20.70;99.90;;;;;;5077796;28;20333;-70
2022/05/19 09:02:13;;;;;;;;;;;20.90;99.90;;;;;;5078784;28;20634;-70
2022/05/19 09:05:01;;;;;;;;;;;21.00;99.90;;;;;;5112865;27;20256;-70
2022/05/19 09:07:57;;;;;;;;;;;21.10;99.90;;;;;;5082117;28;19940;-71
2022/05/19 09:10:35;;;;;;;;;;;21.20;99.90;;;;;;5087867;28;19965;-71
2022/05/19 09:13:05;;;;;;;;;;;21.10;99.90;;;;;;5090392;28;19975;-71
2022/05/19 09:15:31;;;;;;;;;;;21.20;99.90;;;;;;5091860;28;19931;-71
2022/05/19 09:17:57;;;;;;;;;;;21.30;99.90;;;;;;5076128;28;19924;-70
2022/05/19 09:20:28;;;;;;;;;;;21.40;99.90;;;;;;5092054;28;19931;-70
2022/05/19 09:22:59;;;;;;;;;;;21.50;99.90;;;;;;5093131;28;20007;-71
2022/05/19 09:25:24;;;;;;;;;;;21.60;99.90;;;;;;5086221;28;19972;-71
2022/05/19 09:27:51;;;;;;;;;;;21.80;99.90;;;;;;5092847;28;20014;-71
2022/05/19 09:30:35;;;;;;;;;;;21.90;99.90;;;;;;5092450;28;19920;-69
2022/05/19 09:33:05;;;;;;;;;;;22.00;99.90;;;;;;5092401;28;19927;-71
2022/05/19 09:35:35;;;;;;;;;;;22.10;99.90;;;;;;5092186;28;20006;-71
2022/05/19 09:38:04;;;;;;;;;;;22.30;99.90;;;;;;5084852;28;20065;-71
2022/05/19 09:40:33;;;;;;;;;;;22.40;99.90;;;;;;5106982;28;19978;-71
2022/05/19 09:43:06;;;;;;;;;;;22.60;99.90;;;;;;5085892;28;20430;-72
2022/05/19 09:45:37;;;;;;;;;;;22.60;99.90;;;;;;5085322;28;20011;-71
2022/05/19 09:48:07;;;;;;;;;;;22.70;99.90;;;;;;5092211;28;19931;-71
2022/05/19 09:50:51;;;;;;;;;;;22.70;99.90;;;;;;5091180;28;19924;-71
2022/05/19 09:53:27;;;;;;;;;;;22.70;99.90;;;;;;5091575;28;19920;-72
2022/05/19 09:55:58;;;;;;;;;;;22.80;99.90;;;;;;5092054;28;20328;-71
2022/05/19 09:58:25;;;;;;;;;;;22.90;99.90;;;;;;5072473;28;19932;-71
2022/05/19 10:00:53;;;;;;;;;;;23.00;99.90;;;;;;5071072;28;20015;-71
2022/05/19 10:03:26;;;;;;;;;;;22.90;99.90;;;;;;5107096;27;19920;-71
2022/05/19 10:05:56;;;;;;;;;;;22.80;99.90;;;;;;5077823;28;19966;-71
2022/05/19 10:08:26;;;;;;;;;;;22.70;99.90;;;;;;5091632;28;19920;-71
2022/05/19 10:10:59;;;;;;;;;;;22.60;99.90;;;;;;5080238;28;19935;-71
2022/05/19 10:13:27;;;;;;;;;;;22.60;99.90;;;;;;5091103;28;20030;-71
2022/05/19 10:15:58;;;;;;;;;;;22.60;99.90;;;;;;5091725;28;19931;-71
2022/05/19 10:18:27;;;;;;;;;;;22.60;99.90;;;;;;5091187;28;20535;-71
2022/05/19 10:21:00;;;;;;;;;;;22.70;99.90;;;;;;5090680;28;20326;-71
2022/05/19 10:23:33;;;;;;;;;;;22.90;99.90;;;;;;5083833;28;19920;-71
2022/05/19 10:26:01;;;;;;;;;;;23.10;99.90;;;;;;5071410;28;20321;-70
2022/05/19 10:31:39;;;;;;;;;;;23.70;99.90;;;;;;5091273;28;20015;-71
2022/05/19 10:34:05;;;;;;;;;;;23.90;99.90;;;;;;5090992;28;19920;-72
2022/05/19 10:36:31;;;;;;;;;;;24.10;99.90;;;;;;5090652;28;20355;-71
2022/05/19 10:39:03;;;;;;;;;;;24.20;99.90;;;;;;5089744;28;19924;-71
2022/05/19 10:41:35;;;;;;;;;;;24.30;99.90;;;;;;5089313;28;19951;-72
2022/05/19 10:44:01;;;;;;;;;;;24.40;99.90;;;;;;5085483;28;19920;-70
2022/05/19 10:46:30;;;;;;;;;;;24.70;99.90;;;;;;5078332;28;19974;-71
2022/05/19 10:49:04;;;;;;;;;;;24.90;99.90;;;;;;5070639;28;19924;-71
2022/05/19 10:51:42;;;;;;;;;;;25.20;99.90;;;;;;5069931;28;19928;-71
2022/05/19 10:54:17;;;;;;;;;;;25.30;99.90;;;;;;5071103;28;19927;-71
2022/05/19 10:56:53;;;;;;;;;;;25.40;99.90;;;;;;5074885;28;20010;-70
2022/05/19 10:59:34;;;;;;;;;;;25.50;99.90;;;;;;5090541;28;19928;-71
2022/05/19 11:02:24;;;;;;;;;;;25.50;99.90;;;;;;5081441;28;19946;-69
2022/05/19 11:04:50;;;;;;;;;;;25.60;99.90;;;;;;5090653;28;19973;-70
2022/05/19 11:07:15;;;;;;;;;;;25.60;99.90;;;;;;5090247;28;20009;-70
2022/05/19 11:09:50;;;;;;;;;;;25.70;99.90;;;;;;5089294;28;20293;-70
2022/05/19 11:12:22;;;;;;;;;;;25.80;99.90;;;;;;5090228;28;19935;-70
2022/05/19 11:15:02;;;;;;;;;;;25.80;99.90;;;;;;5090588;28;19920;-70
2022/05/19 11:17:39;;;;;;;;;;;25.90;99.90;;;;;;5087654;28;19920;-70
2022/05/19 11:20:07;;;;;;;;;;;26.00;99.90;;;;;;5090264;28;19920;-71
2022/05/19 11:22:35;;;;;;;;;;;26.00;99.90;;;;;;5090200;28;20006;-70
2022/05/19 11:28:00;;;;;;;;;;;26.00;99.90;;;;;;5088534;28;20519;-70
2022/05/19 11:30:30;;;;;;;;;;;26.00;99.90;;;;;;5089886;28;20390;-71
2022/05/19 11:32:57;;;;;;;;;;;26.00;99.90;;;;;;5082069;28;20058;-69
2022/05/19 11:35:23;;;;;;;;;;;26.20;99.90;;;;;;5103905;28;20324;-70
2022/05/19 11:38:07;;;;;;;;;;;26.20;99.90;;;;;;5103287;28;19975;-70
2022/05/19 11:40:36;;;;;;;;;;;26.20;99.90;;;;;;5085648;28;19924;-70
2022/05/19 11:43:21;;;;;;;;;;;26.10;99.90;;;;;;5087592;28;19920;-70
2022/05/19 11:46:01;;;;;;;;;;;25.90;99.90;;;;;;5073577;28;19962;-71
2022/05/19 11:57:11;;;;;;;;;;;25.50;99.90;;;;;;5069323;28;19968;-71
2022/05/19 11:59:38;;;;;;;;;;;25.40;99.90;;;;;;5088771;28;19953;-70
2022/05/19 12:02:04;;;;;;;;;;;25.30;99.90;;;;;;5089789;28;20375;-71
2022/05/19 12:04:31;;;;;;;;;;;25.20;99.90;;;;;;5087870;28;20371;-70
2022/05/19 12:07:12;;;;;;;;;;;25.00;99.90;;;;;;5085028;28;19928;-71
2022/05/19 12:09:41;;;;;;;;;;;24.90;99.90;;;;;;5071731;28;20264;-71
2022/05/19 12:12:20;;;;;;;;;;;24.70;99.90;;;;;;5069241;28;19947;-71
2022/05/19 12:15:05;;;;;;;;;;;24.50;99.90;;;;;;5080357;28;19920;-70
2022/05/19 12:17:33;;;;;;;;;;;24.30;99.90;;;;;;5077073;28;19973;-70
2022/05/19 12:20:03;;;;;;;;;;;24.10;99.90;;;;;;5089240;28;19927;-70
2022/05/19 12:22:30;;;;;;;;;;;23.90;99.90;;;;;;5087692;28;20356;-71
2022/05/19 12:25:07;;;;;;;;;;;23.70;99.90;;;;;;5084869;28;20378;-70
2022/05/19 12:27:36;;;;;;;;;;;23.60;99.90;;;;;;5094664;28;19921;-70
2022/05/19 12:33:23;;;;;;;;;;;23.40;99.90;;;;;;5085612;28;19989;-70
2022/05/19 12:35:51;;;;;;;;;;;23.40;99.90;;;;;;5088070;28;19928;-70
2022/05/19 12:38:29;;;;;;;;;;;23.20;99.90;;;;;;5102634;27;19924;-70
2022/05/19 12:40:56;;;;;;;;;;;23.10;99.90;;;;;;5068190;28;19921;-71
2022/05/19 12:43:21;;;;;;;;;;;22.90;99.90;;;;;;5068953;28;19924;-72
2022/05/19 12:45:51;;;;;;;;;;;22.80;99.90;;;;;;5072441;28;19921;-71
2022/05/19 12:48:18;;;;;;;;;;;22.70;99.90;;;;;;5089119;28;20023;-70
2022/05/19 12:50:51;;;;;;;;;;;22.50;99.90;;;;;;5078425;28;19932;-73
2022/05/19 12:53:23;;;;;;;;;;;22.10;99.90;;;;;;5102402;28;20390;-69
2022/05/19 12:55:50;;;;;;;;;;;21.80;99.90;;;;;;5082361;28;19924;-73
2022/05/19 12:58:34;;;;;;;;;;;21.40;99.90;;;;;;5088548;28;19943;-75
2022/05/19 13:01:16;;;;;;;;;;;21.20;99.90;;;;;;5088444;28;19943;-68
2022/05/19 13:03:43;;;;;;;;;;;20.90;99.90;;;;;;5089357;28;19943;-73
2022/05/19 13:06:11;;;;;;;;;;;20.40;99.90;;;;;;5077459;28;19924;-73
2022/05/19 13:08:38;;;;;;;;;;;19.90;99.90;;;;;;5115596;28;19923;-70
2022/05/19 13:11:09;;;;;;;;;;;19.40;99.90;;;;;;5070959;28;20042;-73
2022/05/19 13:13:42;;;;;;;;;;;19.00;99.90;;;;;;5069269;28;19920;-68
2022/05/19 13:16:18;;;;;;;;;;;18.70;99.90;;;;;;5101314;28;19946;-73
2022/05/19 13:18:47;;;;;;;;;;;18.30;99.90;;;;;;5111967;28;20003;-77
2022/05/19 13:21:20;;;;;;;;;;;18.10;99.90;;;;;;5088983;28;19931;-74
2022/05/19 13:23:45;;;;;;;;;;;17.90;99.90;;;;;;5088735;28;19973;-74
2022/05/19 13:26:28;;;;;;;;;;;17.70;99.90;;;;;;5065679;28;20330;-73
2022/05/19 13:31:49;;;;;;;;;;;17.40;99.90;;;;;;5088590;28;19978;-73
2022/05/19 13:34:17;;;;;;;;;;;17.40;99.90;;;;;;5088493;28;19924;-73
2022/05/19 13:36:50;;;;;;;;;;;17.20;99.90;;;;;;5089974;28;19963;-74
2022/05/19 13:39:16;;;;;;;;;;;17.30;99.90;;;;;;5088214;28;20294;-73
2022/05/19 13:41:49;;;;;;;;;;;17.20;99.90;;;;;;5087801;28;19949;-75
2022/05/19 13:44:19;;;;;;;;;;;17.10;99.90;;;;;;5079825;28;19921;-75
2022/05/19 13:46:45;;;;;;;;;;;17.20;99.90;;;;;;5069180;28;20359;-74
2022/05/19 13:49:15;;;;;;;;;;;17.20;99.90;;;;;;5072654;28;19936;-74
2022/05/19 13:51:45;;;;;;;;;;;17.30;99.90;;;;;;5083770;28;19920;-75
2022/05/19 13:54:11;;;;;;;;;;;17.30;99.90;;;;;;5091828;28;19926;-74
2022/05/19 13:56:38;;;;;;;;;;;17.30;99.90;;;;;;5086697;28;19921;-74
2022/05/19 13:59:05;;;;;;;;;;;17.20;99.90;;;;;;5074660;28;19925;-74
2022/05/19 14:01:34;;;;;;;;;;;17.20;99.90;;;;;;5072413;28;19920;-74
2022/05/19 14:04:00;;;;;;;;;;;17.20;99.90;;;;;;5089850;28;20308;-74
2022/05/19 14:06:28;;;;;;;;;;;17.20;99.90;;;;;;5093649;28;20366;-74
2022/05/19 14:08:54;;;;;;;;;;;17.30;99.90;;;;;;5094443;28;19967;-73
2022/05/19 14:11:19;;;;;;;;;;;17.20;99.90;;;;;;5094035;28;19920;-73
2022/05/19 14:13:45;;;;;;;;;;;17.10;99.90;;;;;;5083373;28;19927;-73
2022/05/19 14:16:12;;;;;;;;;;;17.10;99.90;;;;;;5074146;28;19920;-72
2022/05/19 14:18:39;;;;;;;;;;;17.20;99.90;;;;;;5107941;28;19924;-72
2022/05/19 14:21:11;;;;;;;;;;;17.10;99.90;;;;;;5107387;28;19921;-72
2022/05/19 14:23:52;;;;;;;;;;;17.20;99.90;;;;;;5073351;28;19978;-72
2022/05/19 14:26:36;;;;;;;;;;;17.10;99.90;;;;;;5090836;28;19920;-72
2022/05/19 14:29:03;;;;;;;;;;;17.20;99.90;;;;;;5083219;28;19974;-72
2022/05/19 14:31:48;;;;;;;;;;;17.20;99.90;;;;;;5092925;28;19921;-72
2022/05/19 14:34:13;;;;;;;;;;;17.30;99.90;;;;;;5093760;28;19924;-72
2022/05/19 14:36:42;;;;;;;;;;;17.20;99.90;;;;;;5092296;28;19920;-72
2022/05/19 14:39:24;;;;;;;;;;;17.30;99.90;;;;;;5091853;28;20026;-72
2022/05/19 14:44:38;;;;;;;;;;;17.50;99.90;;;;;;5082486;28;19939;-71
2022/05/19 14:47:23;;;;;;;;;;;17.50;99.90;;;;;;5089064;28;20362;-70
2022/05/19 14:49:57;;;;;;;;;;;17.40;99.90;;;;;;5090475;28;20004;-70
2022/05/19 14:52:34;;;;;;;;;;;17.80;99.90;;;;;;5090387;28;19967;-70
2022/05/19 14:55:05;;;;;;;;;;;17.70;99.90;;;;;;5070769;28;19990;-70
2022/05/19 14:57:31;;;;;;;;;;;18.20;99.90;;;;;;5104681;28;19927;-70
2022/05/19 14:59:57;;;;;;;;;;;18.40;99.90;;;;;;5103925;28;19963;-71